createdAt,value
2015-08-15T00:00:24.869Z,75
2015-08-15T00:01:25.794Z,74.4
2015-08-15T00:02:26.608Z,69.3
2015-08-15T00:03:27.906Z,75.6
2015-08-15T00:04:28.377Z,76.1
2015-08-15T00:05:29.317Z,70.5
2015-08-15T00:06:30.162Z,71.1
2015-08-15T00:07:31.055Z,69.7
2015-08-15T00:08:31.932Z,76.1
2015-08-15T00:09:32.809Z,76.1
2015-08-15T00:10:33.749Z,73.4
2015-08-15T00:11:34.610Z,73.8
2015-08-15T00:12:35.534Z,75.9
2015-08-15T00:13:36.442Z,74.3
2015-08-15T00:14:37.413Z,72.5
2015-08-15T00:15:38.180Z,77.1
2015-08-15T00:16:39.057Z,76.3
2015-08-15T00:17:39.997Z,77
2015-08-15T00:18:40.968Z,74.4
2015-08-15T00:19:42.392Z,76.1
2015-08-15T00:20:42.768Z,74.8
2015-08-15T00:21:43.958Z,72.7
2015-08-15T00:22:44.397Z,71.8
2015-08-15T00:23:45.242Z,75.4
2015-08-15T00:24:46.245Z,73.3
2015-08-15T00:25:47.356Z,74.6
2015-08-15T00:26:47.921Z,77.9
2015-08-15T00:27:48.782Z,76.6
2015-08-15T00:28:49.705Z,74.7
2015-08-15T00:29:50.692Z,76.6
2015-08-15T00:30:52.164Z,76.1
2015-08-15T00:31:52.322Z,76.7
2015-08-15T00:32:53.386Z,76.2
2015-08-15T00:33:54.607Z,74.2
2015-08-15T00:34:55.375Z,73.8
2015-08-15T00:35:55.939Z,73.1
2015-08-15T00:36:57.035Z,73.8
2015-08-15T00:37:58.256Z,75.2
2015-08-15T00:38:58.742Z,75.1
2015-08-15T00:40:00.463Z,77.3
2015-08-15T00:41:00.714Z,78.2
2015-08-15T00:42:01.653Z,78.1
2015-08-15T00:43:02.906Z,77.7
2015-08-15T00:44:03.549Z,78.5
2015-08-15T00:45:05.269Z,76.6
2015-08-15T00:46:04.864Z,78.3
2015-08-15T00:47:05.602Z,77
2015-08-15T00:48:08.243Z,77.4
2015-08-15T00:49:09.262Z,77.6
2015-08-15T00:50:08.904Z,78.4
2015-08-15T00:51:12.265Z,76.7
2015-08-15T00:52:10.064Z,79.2
2015-08-15T00:53:11.113Z,79.7
2015-08-15T00:54:11.802Z,76.1
2015-08-15T00:55:12.898Z,77.6
2015-08-15T00:56:13.649Z,78.1
2015-08-15T00:57:14.480Z,77.7
2015-08-15T00:58:15.670Z,78.7
2015-08-15T00:59:41.797Z,76.8
2015-08-15T01:16:51.376Z,76.7
2015-08-15T01:17:50.144Z,79
2015-08-15T01:18:51.005Z,78.1
2015-08-15T01:19:54.867Z,79.2
2015-08-15T01:20:52.806Z,79.5
2015-08-15T01:21:59.621Z,79.6
2015-08-15T01:22:54.482Z,78.8
2015-08-15T01:23:55.687Z,79.4
2015-08-15T01:24:56.267Z,78.6
2015-08-15T01:25:57.159Z,79.1
2015-08-15T01:26:58.021Z,80.2
2015-08-15T01:27:58.898Z,79.6
2015-08-15T01:28:59.775Z,79
2015-08-15T01:30:00.698Z,78.6
2015-08-15T01:31:01.544Z,78.3
2015-08-15T01:32:02.624Z,78.4
2015-08-15T01:33:03.407Z,78.4
2015-08-15T01:34:04.253Z,78.4
2015-08-15T01:35:05.146Z,78.2
2015-08-15T01:36:09.054Z,77.8
2015-08-15T01:37:06.901Z,77.9
2015-08-15T01:38:07.793Z,77.7
2015-08-15T01:39:08.686Z,78.3
2015-08-15T01:40:09.609Z,77.8
2015-08-15T01:41:10.470Z,78.2
2015-08-15T01:42:11.347Z,78.1
2015-08-15T01:43:12.224Z,77.8
2015-08-15T01:44:13.054Z,77.5
2015-08-15T01:45:14.009Z,78.6
2015-08-15T01:46:14.871Z,78.2
2015-08-15T01:47:15.920Z,78.5
2015-08-15T01:48:16.656Z,78.1
2015-08-15T01:49:17.517Z,78.2
2015-08-15T01:50:18.706Z,78.1
2015-08-15T01:51:19.303Z,78.4
2015-08-15T01:52:20.163Z,78.5
2015-08-15T01:53:23.276Z,78.2
2015-08-15T01:54:21.948Z,77.6
2015-08-15T01:55:28.857Z,79.1
2015-08-15T01:56:23.734Z,78.1
2015-08-15T01:57:24.596Z,78.9
2015-08-15T01:58:25.488Z,79.4
2015-08-15T01:59:26.349Z,79.4
2015-08-15T02:00:27.554Z,78.7
2015-08-15T02:01:28.150Z,78.1
2015-08-15T02:02:29.214Z,79.1
2015-08-15T02:03:29.935Z,79.4
2015-08-15T02:04:30.780Z,78.8
2015-08-15T02:05:31.689Z,78.5
2015-08-15T02:06:32.551Z,78.6
2015-08-15T02:07:33.443Z,78.6
2015-08-15T02:08:34.319Z,78.6
2015-08-15T02:09:35.212Z,78.7
2015-08-15T02:10:36.121Z,78.5
2015-08-15T02:11:37.014Z,78.8
2015-08-15T02:12:37.875Z,78.5
2015-08-15T02:13:38.744Z,78.9
2015-08-15T02:14:39.676Z,79
2015-08-15T02:15:40.592Z,78.5
2015-08-15T02:16:41.539Z,79.1
2015-08-15T02:17:42.629Z,79.1
2015-08-15T02:18:43.381Z,78.9
2015-08-15T02:19:44.256Z,78.9
2015-08-15T02:20:45.179Z,78.6
2015-08-15T02:21:46.054Z,78.3
2015-08-15T02:22:46.976Z,79.2
2015-08-15T02:23:47.864Z,78.8
2015-08-15T02:24:48.809Z,78.7
2015-08-15T02:25:49.706Z,78.7
2015-08-15T02:26:50.604Z,78.9
2015-08-15T02:27:54.439Z,78.7
2015-08-15T02:28:52.283Z,78.9
2015-08-15T02:29:53.226Z,78.6
2015-08-15T02:30:54.074Z,78.4
2015-08-15T02:31:54.969Z,78.7
2015-08-15T02:32:55.940Z,78.6
2015-08-15T02:33:56.774Z,78.3
2015-08-15T02:34:57.604Z,77.4
2015-08-15T02:35:58.513Z,77.8
2015-08-15T02:36:59.375Z,77.9
2015-08-15T02:38:00.269Z,77.4
2015-08-15T02:39:01.163Z,77.2
2015-08-15T02:40:02.055Z,77
2015-08-15T02:41:02.962Z,77.1
2015-08-15T02:42:03.809Z,77.4
2015-08-15T02:43:04.702Z,77.3
2015-08-15T02:44:05.938Z,77.3
2015-08-15T02:45:06.456Z,77.1
2015-08-15T02:46:07.333Z,77.4
2015-08-15T02:47:08.257Z,77.5
2015-08-15T02:48:09.227Z,77.2
2015-08-15T02:49:10.026Z,76.8
2015-08-15T02:50:10.903Z,77.3
2015-08-15T02:51:11.812Z,77.1
2015-08-15T02:52:12.673Z,77.2
2015-08-15T02:53:13.534Z,77.5
2015-08-15T02:54:16.707Z,77.5
2015-08-15T02:55:17.179Z,77.5
2015-08-15T02:56:22.228Z,77.2
2015-08-15T02:57:17.105Z,77.2
2015-08-15T02:58:18.637Z,77.4
2015-08-15T02:59:19.218Z,77.9
2015-08-15T03:00:19.875Z,77.7
2015-08-15T03:01:20.644Z,77.1
2015-08-15T03:02:36.520Z,77.5
2015-08-15T03:03:22.539Z,77.4
2015-08-15T03:04:29.931Z,77.4
2015-08-15T03:05:27.215Z,77.6
2015-08-15T03:07:27.578Z,77.1
2015-08-15T03:08:18.079Z,77.1
2015-08-15T03:09:48.457Z,77.2
2015-08-15T03:12:20.899Z,77.2
2015-08-15T03:12:29.571Z,77.1
2015-08-15T03:12:41.884Z,76.8
2015-08-15T03:13:19.371Z,76.9
2015-08-15T03:13:37.402Z,77.2
2015-08-15T03:14:34.544Z,77.1
2015-08-15T03:15:36.031Z,76.9
2015-08-15T03:16:34.814Z,77
2015-08-15T03:17:35.300Z,77.1
2015-08-15T03:18:39.552Z,76.7
2015-08-15T03:19:39.523Z,76.1
2015-08-15T03:20:53.369Z,75.6
2015-08-15T03:24:23.203Z,75.9
2015-08-15T03:24:33.330Z,76
2015-08-15T03:25:20.783Z,76
2015-08-15T03:25:53.707Z,76.1
2015-08-15T03:26:12.863Z,76.4
2015-08-15T03:28:05.101Z,76.5
2015-08-15T03:31:07.935Z,76.4
2015-08-15T03:31:12.826Z,76.4
2015-08-15T03:31:16.951Z,76.6
2015-08-15T03:31:25.826Z,76.5
2015-08-15T03:31:48.811Z,76.6
2015-08-15T03:33:00.127Z,76.7
2015-08-15T03:35:15.818Z,76.1
2015-08-15T03:41:09.861Z,76.4
2015-08-15T03:41:24.017Z,76.7
2015-08-15T07:33:32.056Z,61.7
2015-08-15T07:34:33.620Z,61.9
2015-08-15T07:35:35.732Z,61.8
2015-08-15T07:36:34.891Z,61.6
2015-08-15T07:37:35.455Z,60.7
2015-08-15T07:38:36.331Z,61.9
2015-08-15T07:39:37.349Z,61.7
2015-08-15T07:40:38.398Z,60.4
2015-08-15T07:41:45.103Z,60.2
2015-08-15T07:42:43.027Z,60.1
2015-08-15T07:44:42.609Z,58.8
2015-08-15T07:45:44.564Z,57.6
2015-08-15T07:47:44.334Z,58.6
2015-08-15T07:48:45.211Z,58.3
2015-08-15T07:49:46.197Z,58.3
2015-08-15T07:50:46.980Z,56.3
2015-08-15T07:51:47.920Z,56.6
2015-08-15T07:52:48.812Z,56.9
2015-08-15T07:53:49.674Z,58.2
2015-08-15T07:54:50.551Z,59
2015-08-15T07:55:51.490Z,56.8
2015-08-15T07:56:52.305Z,53.8
2015-08-15T07:57:53.213Z,54.2
2015-08-15T07:58:54.167Z,55.1
2015-08-15T07:59:55.045Z,53.9
2015-08-15T08:00:55.907Z,54.7
2015-08-15T08:01:56.799Z,54
2015-08-15T08:02:57.770Z,56.1
2015-08-15T08:03:58.553Z,53.6
2015-08-15T08:04:59.430Z,54.8
2015-08-15T08:06:00.338Z,54.2
2015-08-15T08:07:01.278Z,53.3
2015-08-15T08:08:03.014Z,54
2015-08-15T08:09:03.157Z,53.8
2015-08-15T08:10:04.377Z,53.8
2015-08-15T08:11:06.972Z,52.3
2015-08-15T08:12:06.100Z,52.2
2015-08-15T08:13:06.696Z,52.3
2015-08-15T08:14:08.338Z,51.9
2015-08-15T08:15:08.418Z,51.9
2015-08-15T08:16:09.468Z,51.3
2015-08-15T08:17:10.203Z,51.6
2015-08-15T08:18:11.033Z,52
2015-08-15T08:19:12.254Z,51.5
2015-08-15T08:20:13.070Z,51.1
2015-08-15T08:21:13.727Z,50.9
2015-08-15T08:22:14.589Z,52.5
2015-08-15T08:25:17.344Z,51.5
2015-08-15T08:26:18.066Z,52
2015-08-15T08:27:18.973Z,52.4
2015-08-15T08:28:19.945Z,52.2
2015-08-15T08:29:20.774Z,50.1
2015-08-15T08:30:21.667Z,51.2
2015-08-15T08:31:22.731Z,50.2
2015-08-15T08:32:23.624Z,50
2015-08-15T08:33:24.423Z,49.6
2015-08-15T08:34:25.878Z,50.4
2015-08-15T08:35:26.114Z,51.1
2015-08-15T08:36:26.991Z,49.8
2015-08-15T08:37:27.978Z,50
2015-08-15T08:38:28.900Z,51.3
2015-08-15T08:39:29.732Z,50.2
2015-08-15T08:40:30.546Z,50.2
2015-08-15T08:41:31.923Z,48
2015-08-15T08:42:32.363Z,48.7
2015-08-15T08:43:33.255Z,47.9
2015-08-15T08:44:35.851Z,48.8
2015-08-15T08:45:34.993Z,50.3
2015-08-15T08:46:35.948Z,49.4
2015-08-15T08:47:36.825Z,49.2
2015-08-15T08:48:38.109Z,48.1
2015-08-15T08:49:38.767Z,49
2015-08-15T08:50:39.690Z,48.6
2015-08-15T08:51:40.317Z,48.1
2015-08-15T08:52:41.460Z,47.7
2015-08-15T08:53:42.243Z,47.7
2015-08-15T08:54:43.369Z,48.2
2015-08-15T08:55:43.841Z,48.9
2015-08-15T08:56:45.124Z,47.1
2015-08-15T08:57:46.142Z,46.7
2015-08-15T08:58:46.722Z,47.1
2015-08-15T08:59:47.489Z,47.6
2015-08-15T09:00:48.553Z,45.4
2015-08-15T09:01:49.321Z,45.4
2015-08-15T09:02:50.230Z,45.9
2015-08-15T09:03:51.029Z,46.6
2015-08-15T09:04:52.343Z,46.5
2015-08-15T09:05:52.828Z,47.2
2015-08-15T09:06:54.472Z,47.9
2015-08-15T09:07:54.582Z,48.6
2015-08-15T09:08:55.507Z,47.7
2015-08-15T09:09:56.399Z,47.9
2015-08-15T09:10:57.168Z,46.1
2015-08-15T09:11:58.153Z,46
2015-08-15T09:12:59.311Z,45.3
2015-08-15T09:14:00.032Z,45.3
2015-08-15T09:15:00.768Z,45.7
2015-08-15T09:16:01.676Z,42.9
2015-08-15T09:17:02.616Z,44.2
2015-08-15T09:18:03.477Z,44.6
2015-08-15T09:19:04.729Z,44.4
2015-08-15T09:20:05.185Z,43.8
2015-08-15T09:21:06.062Z,44.4
2015-08-15T09:22:06.953Z,45.1
2015-08-15T09:23:07.816Z,44.6
2015-08-15T09:24:08.755Z,44.5
2015-08-15T09:25:09.678Z,44
2015-08-15T09:26:10.602Z,45.6
2015-08-15T09:27:11.401Z,45.3
2015-08-15T09:28:12.293Z,45.4
2015-08-15T09:29:13.186Z,43.1
2015-08-15T09:30:14.095Z,43.4
2015-08-15T09:31:15.002Z,42.2
2015-08-15T09:32:15.879Z,42
2015-08-15T09:33:16.741Z,42.9
2015-08-15T09:34:17.649Z,42.7
2015-08-15T09:35:18.526Z,42.5
2015-08-15T09:36:19.434Z,42.7
2015-08-15T09:37:20.264Z,44.5
2015-08-15T09:38:23.125Z,43.6
2015-08-15T09:39:22.112Z,43.2
2015-08-15T09:40:23.083Z,42.4
2015-08-15T09:41:24.054Z,42
2015-08-15T09:42:24.884Z,42.5
2015-08-15T09:43:27.604Z,43.5
2015-08-15T09:44:26.543Z,43.5
2015-08-15T09:45:27.436Z,43.3
2015-08-15T09:46:28.360Z,42.5
2015-08-15T09:47:29.222Z,42.9
2015-08-15T09:48:30.130Z,42.5
2015-08-15T09:49:31.006Z,41.4
2015-08-15T09:50:31.883Z,40.5
2015-08-15T09:51:32.838Z,42.2
2015-08-15T09:52:33.700Z,42.6
2015-08-15T09:53:34.591Z,41.4
2015-08-15T09:54:35.485Z,41.1
2015-08-15T09:55:36.409Z,40.8
2015-08-15T09:56:37.395Z,41.2
2015-08-15T09:57:38.132Z,42.2
2015-08-15T09:58:39.023Z,42.5
2015-08-15T09:59:39.917Z,42.1
2015-08-15T10:00:40.840Z,43.3
2015-08-15T10:01:41.718Z,42.1
2015-08-15T10:02:42.594Z,42.1
2015-08-15T10:03:43.564Z,41.8
2015-08-15T10:04:44.364Z,41.6
2015-08-15T10:05:45.272Z,41
2015-08-15T10:06:46.149Z,40.9
2015-08-15T10:07:47.041Z,40.7
2015-08-15T10:08:47.966Z,41.8
2015-08-15T10:09:48.858Z,42.2
2015-08-15T10:10:49.782Z,42.5
2015-08-15T10:11:50.721Z,42.1
2015-08-15T10:12:51.550Z,41.9
2015-08-15T10:13:52.491Z,40.3
2015-08-15T10:14:53.305Z,39.5
2015-08-15T10:15:54.260Z,40.1
2015-08-15T10:16:55.169Z,40.1
2015-08-15T10:17:55.982Z,41.2
2015-08-15T10:18:56.890Z,40.4
2015-08-15T10:19:57.784Z,40.7
2015-08-15T10:20:58.644Z,41.6
2015-08-15T10:21:59.568Z,43.1
2015-08-15T10:23:00.477Z,42.5
2015-08-15T10:24:01.354Z,42.1
2015-08-15T10:25:02.230Z,41.6
2015-08-15T10:26:03.124Z,40.3
2015-08-15T10:27:04.016Z,40.5
2015-08-15T10:28:04.846Z,40.2
2015-08-15T10:29:05.754Z,41.2
2015-08-15T10:30:06.631Z,40.7
2015-08-15T10:31:07.539Z,40.8
2015-08-15T10:32:08.448Z,40.2
2015-08-15T10:33:09.309Z,41.9
2015-08-15T10:34:10.202Z,42.2
2015-08-15T10:35:11.078Z,41.9
2015-08-15T10:36:11.971Z,41.4
2015-08-15T10:37:12.879Z,40.5
2015-08-15T10:38:13.787Z,42.3
2015-08-15T10:39:14.695Z,40.8
2015-08-15T10:40:15.541Z,40.5
2015-08-15T10:41:16.433Z,40.9
2015-08-15T10:42:17.435Z,39.4
2015-08-15T10:43:18.203Z,39.1
2015-08-15T10:44:21.033Z,40.3
2015-08-15T10:45:20.130Z,39.7
2015-08-15T10:46:20.928Z,40.6
2015-08-15T10:47:21.773Z,40.2
2015-08-15T10:48:22.744Z,39
2015-08-15T10:49:23.621Z,40.5
2015-08-15T10:50:24.483Z,41.6
2015-08-15T10:51:25.453Z,41.1
2015-08-15T10:52:26.237Z,40.1
2015-08-15T10:53:27.192Z,40.3
2015-08-15T10:54:28.022Z,42.1
2015-08-15T10:55:28.899Z,40.2
2015-08-15T10:56:29.806Z,40.1
2015-08-15T10:57:30.747Z,38.9
2015-08-15T10:58:31.591Z,39.7
2015-08-15T10:59:32.484Z,39.9
2015-08-15T11:00:33.378Z,41.1
2015-08-15T11:01:34.379Z,40.7
2015-08-15T11:02:35.162Z,39
2015-08-15T11:03:36.023Z,39.3
2015-08-15T11:04:38.838Z,40
2015-08-15T11:05:37.809Z,38.8
2015-08-15T11:06:38.701Z,39
2015-08-15T11:07:39.609Z,38.8
2015-08-15T11:08:40.550Z,38.9
2015-08-15T11:09:41.473Z,39.1
2015-08-15T11:10:42.272Z,40.5
2015-08-15T11:11:43.149Z,39.4
2015-08-15T11:12:44.103Z,39.8
2015-08-15T11:13:44.949Z,41
2015-08-15T11:14:45.842Z,39.5
2015-08-15T11:15:46.750Z,39.8
2015-08-15T11:16:47.689Z,39.7
2015-08-15T11:17:48.567Z,39.1
2015-08-15T11:18:49.443Z,39.3
2015-08-15T11:19:50.301Z,38.9
2015-08-15T11:20:51.253Z,37.5
2015-08-15T11:21:52.204Z,38.7
2015-08-15T11:22:53.219Z,37.8
2015-08-15T11:23:54.062Z,38
2015-08-15T11:24:54.972Z,36.3
2015-08-15T11:25:55.928Z,37
2015-08-15T11:26:56.898Z,36
2015-08-15T11:27:57.790Z,35.9
2015-08-15T11:28:58.683Z,36.5
2015-08-15T11:29:59.571Z,37.9
2015-08-15T11:31:00.470Z,36.7
2015-08-15T11:32:01.337Z,35.3
2015-08-15T11:33:02.204Z,36.9
2015-08-15T11:34:03.119Z,36.9
2015-08-15T11:35:03.999Z,34.9
2015-08-15T11:36:06.801Z,34.8
2015-08-15T11:37:05.819Z,35.5
2015-08-15T11:38:06.714Z,35
2015-08-15T11:39:07.609Z,35.6
2015-08-15T11:40:08.471Z,36.6
2015-08-15T11:41:09.365Z,36.5
2015-08-15T11:42:10.258Z,34.7
2015-08-15T11:43:11.229Z,34.5
2015-08-15T11:44:12.061Z,34.8
2015-08-15T11:45:13.000Z,34.8
2015-08-15T11:46:13.861Z,35.7
2015-08-15T11:47:14.723Z,36.4
2015-08-15T11:48:16.537Z,36.1
2015-08-15T11:49:16.820Z,38.1
2015-08-15T11:50:19.947Z,39
2015-08-15T11:51:18.309Z,37
2015-08-15T11:52:19.201Z,36.1
2015-08-15T11:53:20.109Z,35.3
2015-08-15T11:54:21.018Z,35.7
2015-08-15T11:55:21.879Z,36
2015-08-15T11:56:22.772Z,35.3
2015-08-15T11:57:23.664Z,36.6
2015-08-15T11:58:29.541Z,37.8
2015-08-15T11:59:25.449Z,36.8
2015-08-15T12:00:26.358Z,35.9
2015-08-15T12:01:27.250Z,36.1
2015-08-15T12:02:30.033Z,36.9
2015-08-15T12:03:29.017Z,37.3
2015-08-15T12:04:29.912Z,38.9
2015-08-15T12:05:30.836Z,38.7
2015-08-15T12:06:31.713Z,39.4
2015-08-15T12:07:32.887Z,39.6
2015-08-15T12:08:33.499Z,40
2015-08-15T12:09:34.390Z,40.4
2015-08-15T12:10:35.267Z,40.1
2015-08-15T12:11:37.066Z,40
2015-08-15T12:12:37.053Z,39.6
2015-08-15T12:13:38.305Z,38.3
2015-08-15T12:14:38.916Z,36.7
2015-08-15T12:15:39.762Z,36.3
2015-08-15T12:17:41.516Z,36.2
2015-08-15T12:18:42.424Z,35.3
2015-08-15T12:19:43.317Z,36.9
2015-08-15T12:20:44.208Z,38.2
2015-08-15T12:21:45.117Z,38.3
2015-08-15T12:22:46.338Z,36.3
2015-08-15T12:23:46.903Z,35.5
2015-08-15T12:24:47.779Z,35.8
2015-08-15T12:25:48.671Z,35.7
2015-08-15T12:26:49.565Z,36.2
2015-08-15T12:28:52.084Z,36.2
2015-08-15T12:29:52.273Z,36.8
2015-08-15T12:30:53.166Z,36.8
2015-08-15T12:31:54.043Z,34.3
2015-08-15T12:32:54.935Z,34.7
2015-08-15T12:33:55.828Z,33.3
2015-08-15T12:34:56.721Z,33.8
2015-08-15T12:35:57.612Z,34.7
2015-08-15T12:36:58.522Z,35.5
2015-08-15T12:37:59.461Z,36.8
2015-08-15T12:39:00.291Z,37.3
2015-08-15T12:40:01.183Z,37.8
2015-08-15T12:41:02.075Z,38.6
2015-08-15T12:42:02.984Z,39.6
2015-08-15T12:43:05.768Z,38.7
2015-08-15T12:44:04.940Z,39.2
2015-08-15T12:45:05.676Z,39.2
2015-08-15T12:46:06.537Z,39.7
2015-08-15T12:47:07.429Z,40
2015-08-15T12:48:08.323Z,42.5
2015-08-15T12:49:09.231Z,39.9
2015-08-15T12:50:10.716Z,40.1
2015-08-15T12:51:11.016Z,38.2
2015-08-15T12:52:11.924Z,39.4
2015-08-15T12:53:18.629Z,37.9
2015-08-15T12:54:14.615Z,37.8
2015-08-15T12:55:16.117Z,35.3
2015-08-15T12:56:15.479Z,36
2015-08-15T12:57:16.371Z,36.2
2015-08-15T12:58:17.279Z,35.8
2015-08-15T12:59:18.281Z,34.8
2015-08-15T13:00:19.065Z,35.8
2015-08-15T13:01:19.942Z,35
2015-08-15T13:02:20.834Z,35.2
2015-08-15T13:03:21.727Z,33.6
2015-08-15T13:04:22.635Z,34.1
2015-08-15T13:05:23.512Z,34.9
2015-08-15T13:06:24.608Z,35.4
2015-08-15T13:07:25.313Z,35.5
2015-08-15T13:08:26.190Z,36.1
2015-08-15T13:09:27.083Z,36.1
2015-08-15T13:10:27.975Z,35.3
2015-08-15T13:11:28.867Z,36.4
2015-08-15T13:12:29.760Z,36.5
2015-08-15T13:13:30.669Z,35.8
2015-08-15T13:14:31.608Z,36.2
2015-08-15T13:15:32.470Z,36
2015-08-15T13:16:33.330Z,35.9
2015-08-15T13:17:34.239Z,36.7
2015-08-15T13:18:35.147Z,36
2015-08-15T13:19:36.024Z,35.1
2015-08-15T13:20:36.933Z,35.7
2015-08-15T13:21:37.841Z,36.7
2015-08-15T13:22:38.717Z,37.6
2015-08-15T13:23:39.578Z,37.2
2015-08-15T13:24:40.488Z,37
2015-08-15T13:25:41.365Z,37.1
2015-08-15T13:26:42.272Z,37.5
2015-08-15T13:27:43.165Z,38.8
2015-08-15T13:28:44.058Z,39.5
2015-08-15T13:29:45.044Z,39.6
2015-08-15T13:31:46.813Z,40.3
2015-08-15T13:32:48.050Z,40
2015-08-15T13:33:48.583Z,41.7
2015-08-15T13:34:49.648Z,41.2
2015-08-15T13:35:50.446Z,40.9
2015-08-15T13:36:51.276Z,40.9
2015-08-15T13:37:52.139Z,42.1
2015-08-15T13:38:53.015Z,42.3
2015-08-15T13:39:55.033Z,43.7
2015-08-15T13:40:54.801Z,43.2
2015-08-15T13:41:55.708Z,44
2015-08-15T13:42:56.538Z,44.1
2015-08-15T13:43:57.415Z,44.8
2015-08-15T13:44:58.370Z,46.1
2015-08-15T13:45:59.936Z,46.6
2015-08-15T13:47:00.124Z,47.9
2015-08-15T13:48:01.329Z,48.5
2015-08-15T13:49:01.941Z,48.9
2015-08-15T13:50:03.068Z,48.5
2015-08-15T13:51:03.664Z,47.8
2015-08-15T13:52:04.556Z,46.1
2015-08-15T13:53:05.464Z,47.1
2015-08-15T13:54:06.465Z,45.1
2015-08-15T13:55:07.218Z,46.1
2015-08-15T13:56:08.189Z,45.2
2015-08-15T13:57:08.988Z,46
2015-08-15T13:58:09.911Z,46.7
2015-08-15T13:59:10.820Z,47.2
2015-08-15T14:00:11.713Z,49
2015-08-15T14:01:12.573Z,48
2015-08-15T14:02:13.747Z,47.5
2015-08-15T14:03:14.358Z,47.4
2015-08-15T14:04:15.345Z,47.5
2015-08-15T14:05:16.113Z,47.7
2015-08-15T14:06:17.489Z,47.6
2015-08-15T14:07:17.913Z,47.6
2015-08-15T14:08:18.853Z,47.9
2015-08-15T14:09:19.667Z,47.9
2015-08-15T14:10:20.591Z,48.6
2015-08-15T14:11:21.765Z,48.6
2015-08-15T14:12:22.455Z,49.3
2015-08-15T14:13:25.207Z,48.6
2015-08-15T14:15:25.039Z,48
2015-08-15T14:16:25.916Z,48.6
2015-08-15T14:17:29.761Z,49.7
2015-08-15T14:18:30.262Z,49.5
2015-08-15T14:19:28.703Z,48.4
2015-08-15T14:20:29.877Z,48.6
2015-08-15T14:21:30.393Z,50.4
2015-08-15T14:22:33.614Z,50.9
2015-08-15T14:23:32.133Z,49
2015-08-15T14:25:34.901Z,48.1
2015-08-15T14:26:37.747Z,48.9
2015-08-15T14:27:35.718Z,48.3
2015-08-15T14:28:38.970Z,47
2015-08-15T14:29:37.613Z,48.4
2015-08-15T14:30:38.708Z,48.1
2015-08-15T14:31:39.476Z,48.8
2015-08-15T14:32:40.462Z,49
2015-08-15T14:33:41.042Z,50.4
2015-08-15T14:34:41.935Z,49.1
2015-08-15T14:35:42.796Z,47.1
2015-08-15T14:36:43.705Z,45.5
2015-08-15T14:37:44.613Z,45.3
2015-08-15T14:38:46.051Z,45.2
2015-08-15T14:39:46.507Z,45.8
2015-08-15T14:40:47.260Z,45.6
2015-08-15T14:41:48.198Z,46.4
2015-08-15T14:42:49.044Z,41.7
2015-08-15T14:43:49.890Z,43.3
2015-08-15T14:44:50.877Z,43.7
2015-08-15T14:45:51.831Z,41.8
2015-08-15T14:46:53.192Z,41.2
2015-08-15T14:47:53.726Z,42
2015-08-15T14:48:54.603Z,42.7
2015-08-15T14:49:55.370Z,41.2
2015-08-15T14:50:56.185Z,41.2
2015-08-15T14:51:57.484Z,41.9
2015-08-15T14:52:58.063Z,40.4
2015-08-15T14:53:59.347Z,42.2
2015-08-15T14:54:59.740Z,40.6
2015-08-15T14:56:00.897Z,39.5
2015-08-15T14:57:01.930Z,37.3
2015-08-15T14:58:02.620Z,39
2015-08-15T14:59:04.107Z,39.1
2015-08-15T15:00:04.358Z,38.5
2015-08-15T15:01:05.188Z,38.2
2015-08-15T15:02:06.003Z,38.2
2015-08-15T15:03:07.005Z,36.3
2015-08-15T15:04:07.772Z,36.3
2015-08-15T15:05:09.056Z,36.5
2015-08-15T15:06:09.637Z,36.4
2015-08-15T15:07:10.513Z,36.4
2015-08-15T15:08:11.312Z,37.3
2015-08-15T15:09:12.376Z,37.7
2015-08-15T15:10:13.158Z,37.3
2015-08-15T15:11:14.051Z,38.2
2015-08-15T15:12:15.209Z,38.5
2015-08-15T15:13:15.853Z,38.8
2015-08-15T15:14:16.760Z,38.1
2015-08-15T15:15:17.871Z,37.4
2015-08-15T15:16:18.624Z,38.6
2015-08-15T15:17:19.375Z,39
2015-08-15T15:18:20.660Z,39.5
2015-08-15T15:19:21.192Z,39.9
2015-08-15T15:20:22.070Z,40.2
2015-08-15T15:21:22.994Z,41
2015-08-15T15:22:23.871Z,40.6
2015-08-15T15:23:24.747Z,40.2
2015-08-15T15:24:25.952Z,39.9
2015-08-15T15:25:26.563Z,40.9
2015-08-15T15:26:27.503Z,40.7
2015-08-15T15:27:28.427Z,42.5
2015-08-15T15:28:29.226Z,41.8
2015-08-15T15:29:30.118Z,41.2
2015-08-15T15:30:30.995Z,42.5
2015-08-15T15:31:31.966Z,42.1
2015-08-15T15:32:32.795Z,40.6
2015-08-15T15:33:35.517Z,41.7
2015-08-15T15:34:34.752Z,42.3
2015-08-15T15:35:35.927Z,43.2
2015-08-15T15:36:37.975Z,42.8
2015-08-15T15:37:40.509Z,41.3
2015-08-15T15:38:39.949Z,40.8
2015-08-15T15:39:41.575Z,40.6
2015-08-15T15:40:41.015Z,41.8
2015-08-15T15:41:42.626Z,42.3
2015-08-15T15:42:41.971Z,42.9
2015-08-15T15:43:45.006Z,41.3
2015-08-15T15:44:51.711Z,41.2
2015-08-15T15:45:48.884Z,42
2015-08-15T15:46:49.198Z,43.2
2015-08-15T15:47:48.669Z,42.9
2015-08-15T15:48:52.280Z,44.5
2015-08-15T15:49:51.656Z,45.9
2015-08-15T15:50:51.550Z,44.4
2015-08-15T15:51:49.755Z,44.1
2015-08-15T15:52:50.882Z,41.9
2015-08-15T15:53:53.821Z,41.7
2015-08-15T15:55:01.323Z,40.9
2015-08-15T15:55:57.621Z,41.2
2015-08-15T15:56:54.921Z,42.2
2015-08-15T15:58:01.938Z,42.4
2015-08-15T15:58:59.674Z,42.5
2015-08-15T15:59:57.036Z,42.8
2015-08-15T16:01:04.898Z,43.6
2015-08-15T16:01:59.352Z,44.3
2015-08-15T16:03:03.246Z,43.8
2015-08-15T16:04:04.169Z,44.5
2015-08-15T16:05:02.686Z,45.2
2015-08-15T16:06:03.001Z,46.2
2015-08-15T16:07:06.565Z,45.7
2015-08-15T16:08:05.520Z,46.1
2015-08-15T16:09:06.069Z,46.1
2015-08-15T16:10:12.368Z,47.6
2015-08-15T16:11:11.776Z,47.5
2015-08-15T16:12:08.185Z,47.1
2015-08-15T16:13:08.593Z,46.8
2015-08-15T16:14:09.657Z,48.1
2015-08-15T16:15:10.316Z,48.5
2015-08-15T16:16:11.130Z,48.6
2015-08-15T16:17:12.100Z,48.1
2015-08-15T16:18:13.227Z,48.3
2015-08-15T16:19:14.433Z,48.3
2015-08-15T16:20:16.529Z,48
2015-08-15T16:21:15.577Z,48.9
2015-08-15T16:22:16.455Z,49.7
2015-08-15T16:23:18.018Z,50.5
2015-08-15T16:24:18.911Z,50.5
2015-08-15T16:25:19.397Z,50.5
2015-08-15T16:26:20.055Z,50.4
2015-08-15T16:27:20.964Z,50.5
2015-08-15T16:28:25.028Z,49.6
2015-08-15T16:29:22.982Z,49.3
2015-08-15T16:30:24.079Z,49.8
2015-08-15T16:31:27.097Z,49.7
2015-08-15T16:32:27.551Z,50.2
2015-08-15T16:33:26.396Z,50.3
2015-08-15T16:34:28.023Z,50.7
2015-08-15T16:35:28.150Z,50.5
2015-08-15T16:37:31.608Z,50
2015-08-15T16:38:30.922Z,51.5
2015-08-15T16:39:31.815Z,51.5
2015-08-15T16:40:32.583Z,52.2
2015-08-15T16:41:33.475Z,52.3
2015-08-15T16:42:35.039Z,51.6
2015-08-15T16:43:36.901Z,52.1
2015-08-15T16:44:36.622Z,53.3
2015-08-15T16:45:37.468Z,52.7
2015-08-15T16:46:38.188Z,53.2
2015-08-15T16:47:38.815Z,52.7
2015-08-15T16:48:39.676Z,53.4
2015-08-15T16:49:40.553Z,53.4
2015-08-15T16:50:43.414Z,53.5
2015-08-15T16:51:42.292Z,54.3
2015-08-15T16:52:43.293Z,55.1
2015-08-15T16:53:44.170Z,55.2
2015-08-15T16:54:44.985Z,56.1
2015-08-15T16:55:45.830Z,56.8
2015-08-15T16:56:46.755Z,57.3
2015-08-15T16:57:47.851Z,58.1
2015-08-15T16:58:48.852Z,57
2015-08-15T16:59:49.745Z,57.4
2015-08-15T17:00:50.434Z,57.6
2015-08-15T17:01:51.295Z,57.4
2015-08-15T17:02:52.453Z,57.6
2015-08-15T17:03:53.237Z,57.9
2015-08-15T17:04:53.879Z,58.3
2015-08-15T17:05:54.756Z,57.9
2015-08-15T17:06:55.665Z,57.5
2015-08-15T17:07:56.495Z,57.5
2015-08-15T17:08:57.434Z,59
2015-08-15T17:09:58.499Z,59.6
2015-08-15T17:10:59.235Z,58.8
2015-08-15T17:12:00.142Z,59.2
2015-08-15T17:13:01.005Z,60.2
2015-08-15T17:14:02.022Z,60.1
2015-08-15T17:15:03.258Z,60.5
2015-08-15T17:16:03.667Z,60
2015-08-15T17:17:04.496Z,60.4
2015-08-15T17:18:07.014Z,60.3
2015-08-15T17:19:06.734Z,61.5
2015-08-15T17:20:07.347Z,60.5
2015-08-15T17:21:08.613Z,60.7
2015-08-15T17:22:09.084Z,59.9
2015-08-15T17:23:09.883Z,60.6
2015-08-15T17:24:10.744Z,60.7
2015-08-15T17:25:11.700Z,61.1
2015-08-15T17:26:12.545Z,61.9
2015-08-15T17:27:13.454Z,61.7
2015-08-15T17:28:14.284Z,61.3
2015-08-15T17:29:15.270Z,61.2
2015-08-15T17:30:16.053Z,61.5
2015-08-15T17:31:16.962Z,62.1
2015-08-15T17:32:17.885Z,61.5
2015-08-15T17:33:18.762Z,61
2015-08-15T17:34:19.638Z,61.1
2015-08-15T17:35:20.501Z,61.7
2015-08-15T17:36:22.159Z,61.8
2015-08-15T17:37:22.927Z,61.9
2015-08-15T17:38:23.193Z,61.8
2015-08-15T17:39:32.664Z,61.8
2015-08-15T17:40:29.197Z,61.8
2015-08-15T17:41:25.856Z,62.3
2015-08-15T17:42:27.029Z,62.6
2015-08-15T17:44:28.502Z,62.3
2015-08-15T17:45:29.395Z,62.6
2015-08-15T17:46:31.194Z,62.6
2015-08-15T17:47:31.555Z,62.6
2015-08-15T17:48:32.073Z,63.6
2015-08-15T17:50:34.249Z,63.6
2015-08-15T17:51:35.610Z,63.1
2015-08-15T17:52:35.549Z,63.5
2015-08-15T17:53:36.520Z,63.3
2015-08-15T17:54:37.366Z,63.6
2015-08-15T17:55:38.305Z,63.4
2015-08-15T17:56:39.166Z,64.2
2015-08-15T17:58:40.951Z,63.3
2015-08-15T17:59:41.813Z,63.4
2015-08-15T18:00:43.003Z,63.8